createdAt,value
2018-08-31T00:02:01.405Z,13.30
2018-08-31T00:04:42.150Z,13.20
2018-08-31T00:07:25.238Z,13.20
2018-08-31T00:13:06.163Z,13.20
2018-08-31T00:15:34.654Z,13.20
2018-08-31T00:18:03.178Z,13.20
2018-08-31T00:20:32.045Z,13.10
2018-08-31T00:23:00.529Z,13.20
2018-08-31T00:26:06.442Z,13.20
2018-08-31T00:28:47.049Z,13.10
2018-08-31T00:31:26.661Z,13.10
2018-08-31T00:35:20.622Z,13.10
2018-08-31T00:38:02.942Z,13.10
2018-08-31T00:41:08.861Z,13.10
2018-08-31T00:44:51.983Z,13.10
2018-08-31T00:47:20.503Z,13.10
2018-08-31T00:49:48.967Z,13.00
2018-08-31T00:52:17.437Z,13.00
2018-08-31T00:54:45.966Z,13.00
2018-08-31T00:57:14.434Z,13.00
2018-08-31T00:59:42.907Z,13.00
2018-08-31T01:02:11.644Z,13.00
2018-08-31T01:04:40.121Z,13.00
2018-08-31T01:07:08.970Z,13.00
2018-08-31T01:09:37.607Z,13.00
2018-08-31T01:12:06.259Z,13.00
2018-08-31T01:14:34.743Z,13.10
2018-08-31T01:17:03.259Z,13.10
2018-08-31T01:19:31.803Z,13.10
2018-08-31T01:22:00.315Z,13.10
2018-08-31T01:24:28.788Z,13.10
2018-08-31T01:26:57.330Z,13.20
2018-08-31T01:29:25.855Z,13.20
2018-08-31T01:31:54.779Z,13.20
2018-08-31T01:34:23.242Z,13.20
2018-08-31T01:36:51.695Z,13.30
2018-08-31T01:39:20.216Z,13.30
2018-08-31T01:41:48.730Z,13.30
2018-08-31T01:44:17.190Z,13.40
2018-08-31T01:46:45.667Z,13.40
2018-08-31T01:49:14.195Z,13.40
2018-08-31T01:51:42.671Z,13.40
2018-08-31T01:54:11.383Z,13.40
2018-08-31T01:56:39.850Z,13.40
2018-08-31T01:59:08.347Z,13.40
2018-08-31T02:01:36.820Z,13.40
2018-08-31T02:04:05.331Z,13.50
2018-08-31T02:06:34.579Z,13.50
2018-08-31T02:09:08.498Z,13.50
2018-08-31T02:11:37.007Z,13.60
2018-08-31T02:14:06.558Z,13.60
2018-08-31T02:16:35.188Z,13.70
2018-08-31T02:19:03.841Z,13.70
2018-08-31T02:21:32.439Z,13.70
2018-08-31T02:24:01.425Z,13.70
2018-08-31T02:26:29.986Z,13.70
2018-08-31T02:28:58.482Z,13.70
2018-08-31T02:31:26.987Z,13.70
2018-08-31T02:33:55.563Z,13.80
2018-08-31T02:36:24.292Z,13.80
2018-08-31T02:38:52.939Z,13.80
2018-08-31T02:41:21.454Z,13.80
2018-08-31T02:43:50.699Z,13.80
2018-08-31T02:46:20.515Z,13.80
2018-08-31T02:48:49.915Z,13.80
2018-08-31T02:51:18.399Z,13.90
2018-08-31T02:53:46.910Z,13.90
2018-08-31T02:56:15.389Z,13.90
2018-08-31T02:58:43.914Z,13.90
2018-08-31T03:01:12.389Z,13.90
2018-08-31T03:03:40.859Z,13.90
2018-08-31T03:06:09.347Z,13.90
2018-08-31T03:08:37.858Z,13.90
2018-08-31T03:11:06.369Z,13.90
2018-08-31T03:13:34.835Z,13.90
2018-08-31T03:16:03.382Z,13.90
2018-08-31T03:18:31.915Z,13.90
2018-08-31T03:21:00.395Z,13.90
2018-08-31T03:23:28.850Z,14.00
2018-08-31T03:25:57.323Z,14.00
2018-08-31T03:28:25.799Z,14.00
2018-08-31T03:30:54.263Z,14.00
2018-08-31T03:33:22.734Z,13.90
2018-08-31T03:35:51.274Z,13.90
2018-08-31T03:38:19.743Z,13.90
2018-08-31T03:40:48.214Z,13.80
2018-08-31T03:43:16.663Z,13.90
2018-08-31T03:45:45.134Z,13.90
2018-08-31T03:48:13.610Z,13.90
2018-08-31T03:50:42.147Z,13.90
2018-08-31T03:53:10.637Z,14.00
2018-08-31T03:55:39.139Z,14.00
2018-08-31T03:58:07.627Z,14.00
2018-08-31T04:00:36.135Z,13.90
2018-08-31T04:03:04.673Z,14.00
2018-08-31T04:05:33.226Z,14.00
2018-08-31T04:08:01.705Z,14.00
2018-08-31T04:10:30.173Z,14.00
2018-08-31T04:12:58.646Z,14.00
2018-08-31T04:15:27.230Z,14.00
2018-08-31T04:17:55.741Z,14.00
2018-08-31T04:20:57.733Z,14.10
2018-08-31T04:23:26.238Z,14.10
2018-08-31T04:25:54.702Z,14.10
2018-08-31T04:28:23.194Z,14.10
2018-08-31T04:30:57.743Z,14.10
2018-08-31T04:33:26.238Z,14.10
2018-08-31T04:35:54.719Z,14.10
2018-08-31T04:38:23.207Z,14.10
2018-08-31T04:40:51.726Z,14.10
2018-08-31T04:43:20.207Z,14.10
2018-08-31T04:45:48.781Z,14.10
2018-08-31T04:48:17.312Z,14.10
2018-08-31T04:50:49.535Z,14.10
2018-08-31T04:53:17.994Z,14.10
2018-08-31T04:55:50.227Z,14.20
2018-08-31T04:58:18.983Z,14.20
2018-08-31T05:02:44.083Z,14.20
2018-08-31T05:05:22.560Z,14.20
2018-08-31T05:10:45.850Z,14.30
2018-08-31T05:16:27.946Z,14.40
2018-08-31T05:19:08.064Z,14.40
2018-08-31T05:29:59.190Z,14.40
2018-08-31T05:32:27.657Z,14.40
2018-08-31T05:34:56.134Z,14.40
2018-08-31T05:37:24.623Z,14.50
2018-08-31T05:39:53.111Z,14.50
2018-08-31T05:42:21.580Z,14.50
2018-08-31T05:44:50.043Z,14.50
2018-08-31T05:47:18.502Z,14.50
2018-08-31T05:49:46.966Z,14.60
2018-08-31T05:52:15.498Z,14.70
2018-08-31T05:54:43.990Z,14.70
2018-08-31T05:57:12.482Z,14.70
2018-08-31T05:59:40.935Z,14.80
2018-08-31T06:02:09.444Z,14.80
2018-08-31T06:04:40.262Z,14.90
2018-08-31T06:07:08.723Z,14.80
2018-08-31T06:09:37.182Z,14.90
2018-08-31T06:12:05.663Z,15.00
2018-08-31T06:14:34.183Z,15.00
2018-08-31T06:17:02.670Z,15.00
2018-08-31T06:19:31.172Z,15.00
2018-08-31T06:21:59.634Z,15.10
2018-08-31T06:24:28.327Z,15.10
2018-08-31T06:26:56.807Z,15.20
2018-08-31T06:29:25.270Z,15.30
2018-08-31T06:31:53.738Z,15.40
2018-08-31T06:34:22.204Z,15.50
2018-08-31T06:36:50.697Z,15.50
2018-08-31T06:39:19.163Z,15.60
2018-08-31T06:41:47.639Z,15.70
2018-08-31T06:44:16.106Z,15.70
2018-08-31T06:46:44.774Z,15.80
2018-08-31T06:49:13.291Z,16.00
2018-08-31T06:51:41.750Z,16.10
2018-08-31T06:54:10.207Z,16.10
2018-08-31T06:56:38.694Z,16.10
2018-08-31T06:59:07.547Z,16.10
2018-08-31T07:01:36.058Z,16.20
2018-08-31T07:04:04.590Z,16.20
2018-08-31T07:06:33.055Z,16.10
2018-08-31T07:09:01.524Z,16.10
2018-08-31T07:11:30.030Z,16.10
2018-08-31T07:13:58.496Z,16.10
2018-08-31T07:16:26.961Z,16.10
2018-08-31T07:18:55.436Z,16.20
2018-08-31T07:21:23.923Z,16.20
2018-08-31T07:23:52.383Z,16.20
2018-08-31T07:26:20.901Z,16.30
2018-08-31T07:28:49.322Z,16.30
2018-08-31T07:31:17.774Z,16.40
2018-08-31T07:33:46.246Z,16.40
2018-08-31T07:36:14.732Z,16.50
2018-08-31T07:38:43.171Z,16.40
2018-08-31T07:41:11.690Z,16.50
2018-08-31T07:43:40.182Z,16.50
2018-08-31T07:46:08.647Z,16.50
2018-08-31T07:48:37.122Z,16.60
2018-08-31T07:51:13.362Z,16.70
2018-08-31T07:53:41.873Z,16.70
2018-08-31T07:56:10.392Z,16.80
2018-08-31T07:58:38.906Z,16.70
2018-08-31T08:01:07.799Z,16.70
2018-08-31T08:03:36.262Z,16.90
2018-08-31T08:06:04.771Z,17.00
2018-08-31T08:08:33.359Z,17.20
2018-08-31T08:11:01.832Z,17.00
2018-08-31T08:13:30.303Z,17.00
2018-08-31T08:15:58.786Z,16.90
2018-08-31T08:18:27.239Z,16.90
2018-08-31T08:20:55.741Z,17.00
2018-08-31T08:23:25.034Z,17.00
2018-08-31T08:25:53.528Z,17.10
2018-08-31T08:28:22.028Z,17.10
2018-08-31T08:30:50.490Z,17.20
2018-08-31T08:33:19.016Z,17.30
2018-08-31T08:35:47.592Z,17.30
2018-08-31T08:38:24.931Z,17.30
2018-08-31T08:40:53.422Z,17.40
2018-08-31T08:43:31.180Z,17.30
2018-08-31T08:45:59.679Z,17.40
2018-08-31T08:48:36.407Z,17.50
2018-08-31T08:51:04.730Z,17.60
2018-08-31T08:53:33.219Z,17.60
2018-08-31T08:56:01.682Z,17.60
2018-08-31T08:58:30.162Z,17.60
2018-08-31T09:00:58.622Z,17.60
2018-08-31T09:03:27.171Z,17.70
2018-08-31T09:05:55.643Z,17.70
2018-08-31T09:08:24.134Z,17.80
2018-08-31T09:10:52.614Z,17.90
2018-08-31T09:13:21.180Z,18.00
2018-08-31T09:15:49.643Z,18.00
2018-08-31T09:18:23.059Z,17.80
2018-08-31T09:20:51.559Z,17.70
2018-08-31T09:23:20.055Z,17.80
2018-08-31T09:26:03.494Z,17.90
2018-08-31T09:28:32.007Z,17.90
2018-08-31T09:31:00.671Z,17.90
2018-08-31T09:33:29.147Z,17.90
2018-08-31T09:35:57.612Z,17.90
2018-08-31T09:38:26.104Z,17.90
2018-08-31T09:40:54.562Z,18.00
2018-08-31T09:43:23.042Z,17.90
2018-08-31T09:45:51.510Z,17.80
2018-08-31T09:48:20.007Z,17.80
2018-08-31T09:50:48.490Z,17.80
2018-08-31T09:53:16.963Z,17.80
2018-08-31T09:55:45.435Z,17.80
2018-08-31T09:58:13.904Z,17.80
2018-08-31T10:00:47.784Z,17.80
2018-08-31T10:03:25.443Z,17.90
2018-08-31T10:05:55.023Z,18.00
2018-08-31T10:08:25.612Z,17.90
2018-08-31T10:10:54.221Z,18.10
2018-08-31T10:13:22.957Z,18.00
2018-08-31T10:15:51.643Z,18.00
2018-08-31T10:18:20.106Z,18.10
2018-08-31T10:20:48.570Z,18.00
2018-08-31T10:23:17.035Z,18.00
2018-08-31T10:25:45.519Z,18.00
2018-08-31T10:28:13.983Z,18.00
2018-08-31T10:30:42.451Z,18.00
2018-08-31T10:33:10.910Z,18.00
2018-08-31T10:35:39.407Z,18.10
2018-08-31T10:38:07.897Z,18.30
2018-08-31T10:40:36.371Z,18.40
2018-08-31T10:43:04.872Z,18.50
2018-08-31T10:45:33.480Z,18.60
2018-08-31T10:48:01.952Z,18.80
2018-08-31T10:50:30.473Z,19.00
2018-08-31T10:52:58.963Z,19.00
2018-08-31T10:55:27.442Z,19.20
2018-08-31T10:57:55.913Z,19.30
2018-08-31T11:00:24.393Z,19.50
2018-08-31T11:02:52.922Z,19.40
2018-08-31T11:05:21.391Z,19.30
2018-08-31T11:07:49.867Z,19.20
2018-08-31T11:10:18.339Z,19.40
2018-08-31T11:12:46.956Z,19.50
2018-08-31T11:15:15.423Z,19.80
2018-08-31T11:17:44.147Z,20.00
2018-08-31T11:20:12.622Z,20.30
2018-08-31T11:22:41.083Z,20.40
2018-08-31T11:25:09.710Z,20.50
2018-08-31T11:27:38.178Z,20.30
2018-08-31T11:30:07.682Z,20.30
2018-08-31T11:32:36.497Z,20.10
2018-08-31T11:35:05.617Z,20.20
2018-08-31T11:37:34.099Z,20.30
2018-08-31T11:40:02.702Z,20.20
2018-08-31T11:42:31.366Z,20.10
2018-08-31T11:44:59.853Z,20.00
2018-08-31T11:47:28.338Z,19.80
2018-08-31T11:49:56.919Z,19.60
2018-08-31T11:52:25.381Z,19.40
2018-08-31T11:54:53.846Z,19.30
2018-08-31T11:57:22.291Z,19.30
2018-08-31T11:59:50.754Z,19.20
2018-08-31T12:02:19.243Z,19.30
2018-08-31T12:04:47.695Z,19.50
2018-08-31T12:07:16.143Z,19.80
2018-08-31T12:09:44.658Z,20.10
2018-08-31T12:12:13.150Z,20.20
2018-08-31T12:14:41.656Z,20.30
2018-08-31T12:17:10.134Z,20.30
2018-08-31T12:19:38.652Z,20.50
2018-08-31T12:22:07.136Z,20.40
2018-08-31T12:24:35.597Z,20.40
2018-08-31T12:27:04.080Z,20.60
2018-08-31T12:29:32.590Z,20.50
2018-08-31T12:32:01.102Z,20.90
2018-08-31T12:34:29.567Z,20.80
2018-08-31T12:36:58.039Z,20.80
2018-08-31T12:39:26.490Z,20.40
2018-08-31T12:41:54.987Z,20.30
2018-08-31T12:44:23.477Z,20.10
2018-08-31T12:46:51.934Z,20.20
2018-08-31T12:49:20.386Z,20.10
2018-08-31T12:51:48.847Z,19.90
2018-08-31T12:54:17.319Z,19.70
2018-08-31T12:56:45.794Z,19.80
2018-08-31T12:59:14.271Z,19.90
2018-08-31T13:01:42.739Z,20.00
2018-08-31T13:04:11.211Z,20.10
2018-08-31T13:06:39.678Z,20.00
2018-08-31T13:09:08.479Z,20.00
2018-08-31T13:11:37.013Z,20.20
2018-08-31T13:14:05.530Z,20.20
2018-08-31T13:16:33.994Z,20.40
2018-08-31T13:19:02.588Z,20.40
2018-08-31T13:21:31.162Z,20.30
2018-08-31T13:23:59.627Z,20.40
2018-08-31T13:26:28.142Z,20.40
2018-08-31T13:28:56.629Z,20.40
2018-08-31T13:31:25.103Z,20.40
2018-08-31T13:33:53.579Z,20.40
2018-08-31T13:36:22.038Z,20.30
2018-08-31T13:38:50.506Z,20.30
2018-08-31T13:41:18.971Z,20.20
2018-08-31T13:43:47.442Z,20.10
2018-08-31T13:46:15.911Z,20.10
2018-08-31T13:48:44.386Z,20.00
2018-08-31T13:51:12.863Z,20.00
2018-08-31T13:53:41.351Z,20.00
2018-08-31T13:56:09.823Z,20.10
2018-08-31T13:58:38.302Z,20.20
2018-08-31T14:01:06.787Z,20.20
2018-08-31T14:03:35.266Z,20.20
2018-08-31T14:06:03.734Z,20.10
2018-08-31T14:08:32.329Z,20.00
2018-08-31T14:11:00.808Z,19.70
2018-08-31T14:13:29.503Z,19.70
2018-08-31T14:15:58.021Z,19.40
2018-08-31T14:18:26.492Z,19.30
2018-08-31T14:20:54.947Z,19.20
2018-08-31T14:23:23.418Z,19.00
2018-08-31T14:25:51.891Z,19.00
2018-08-31T14:28:20.383Z,19.00
2018-08-31T14:30:48.863Z,18.90
2018-08-31T14:33:17.337Z,18.90
2018-08-31T14:35:45.794Z,18.90
2018-08-31T14:38:14.286Z,18.80
2018-08-31T14:40:42.766Z,18.80
2018-08-31T14:43:11.634Z,18.70
2018-08-31T14:45:40.094Z,18.70
2018-08-31T14:48:08.584Z,18.70
2018-08-31T14:50:37.060Z,18.70
2018-08-31T14:53:05.619Z,18.70
2018-08-31T14:55:34.195Z,18.60
2018-08-31T14:58:02.655Z,18.60
2018-08-31T15:00:31.115Z,18.50
2018-08-31T15:02:59.797Z,18.40
2018-08-31T15:05:29.104Z,18.40
2018-08-31T15:07:57.579Z,18.40
2018-08-31T15:10:26.135Z,18.50
2018-08-31T15:12:54.626Z,18.40
2018-08-31T15:15:23.086Z,18.50
2018-08-31T15:17:52.031Z,18.60
2018-08-31T15:20:20.784Z,18.60
2018-08-31T15:22:49.298Z,18.70
2018-08-31T15:25:17.887Z,18.70
2018-08-31T15:27:46.316Z,18.70
2018-08-31T15:30:15.167Z,18.60
2018-08-31T15:32:43.634Z,18.60
2018-08-31T15:35:12.126Z,18.50
2018-08-31T15:37:40.595Z,18.50
2018-08-31T15:40:09.517Z,18.50
2018-08-31T15:42:38.543Z,18.40
2018-08-31T15:45:07.427Z,18.40
2018-08-31T15:47:36.067Z,18.30
2018-08-31T15:50:05.000Z,18.30
2018-08-31T15:52:33.451Z,18.20
2018-08-31T15:55:01.911Z,18.20
2018-08-31T15:57:30.374Z,18.10
2018-08-31T15:59:58.850Z,18.20
2018-08-31T16:02:27.389Z,18.10
2018-08-31T16:04:55.811Z,18.20
2018-08-31T16:07:24.274Z,18.20
2018-08-31T16:09:52.852Z,18.20
2018-08-31T16:12:21.319Z,18.20
2018-08-31T16:14:49.788Z,18.20
2018-08-31T16:17:18.259Z,18.20
2018-08-31T16:19:46.737Z,18.30
2018-08-31T16:22:15.215Z,18.30
2018-08-31T16:24:43.714Z,18.30
2018-08-31T16:27:12.190Z,18.30
2018-08-31T16:29:40.651Z,18.30
2018-08-31T16:32:09.302Z,18.30
2018-08-31T16:34:37.850Z,18.20
2018-08-31T16:37:06.346Z,18.20
2018-08-31T16:39:34.867Z,18.20
2018-08-31T16:42:03.343Z,18.20
2018-08-31T16:44:31.939Z,18.10
2018-08-31T16:47:00.446Z,18.10
2018-08-31T16:49:28.926Z,18.00
2018-08-31T16:51:57.387Z,17.90
2018-08-31T16:54:25.858Z,17.90
2018-08-31T16:56:54.327Z,17.90
2018-08-31T16:59:22.814Z,17.90
2018-08-31T17:01:51.286Z,17.80
2018-08-31T17:04:19.777Z,17.80
2018-08-31T17:06:48.246Z,17.80
2018-08-31T17:09:16.717Z,17.70
2018-08-31T17:11:45.188Z,17.70
2018-08-31T17:14:13.649Z,17.60
2018-08-31T17:16:42.156Z,17.50
2018-08-31T17:19:10.577Z,17.50
2018-08-31T17:21:39.084Z,17.50
2018-08-31T17:24:07.555Z,17.40
2018-08-31T17:27:43.100Z,17.40
2018-08-31T17:30:16.987Z,17.40
2018-08-31T17:32:50.807Z,17.40
2018-08-31T17:35:24.552Z,17.40
2018-08-31T17:37:53.046Z,17.30
2018-08-31T17:40:21.595Z,17.30
2018-08-31T17:42:50.046Z,17.30
2018-08-31T17:45:19.553Z,17.20
2018-08-31T17:47:48.730Z,17.10
2018-08-31T17:50:17.334Z,17.10
2018-08-31T17:52:46.214Z,17.10
2018-08-31T17:55:15.005Z,17.00
2018-08-31T17:57:43.870Z,17.00
2018-08-31T18:00:12.927Z,17.00
2018-08-31T18:02:41.695Z,17.00
2018-08-31T18:05:10.264Z,16.90
2018-08-31T18:07:38.751Z,16.90
2018-08-31T18:10:07.358Z,17.00
2018-08-31T18:12:35.894Z,17.00
2018-08-31T18:15:04.714Z,17.00
2018-08-31T18:17:33.314Z,17.00
2018-08-31T18:20:01.792Z,16.90
2018-08-31T18:22:30.290Z,16.90
2018-08-31T18:24:58.747Z,16.90
2018-08-31T18:27:27.198Z,16.90
2018-08-31T18:29:55.751Z,16.90
2018-08-31T18:32:24.212Z,16.90
2018-08-31T18:34:52.686Z,16.80
2018-08-31T18:37:21.154Z,16.90
2018-08-31T18:39:49.651Z,16.80
2018-08-31T18:42:18.109Z,16.80
2018-08-31T18:44:46.573Z,16.80
2018-08-31T18:47:15.044Z,16.70
2018-08-31T18:49:43.562Z,16.70
2018-08-31T18:52:12.086Z,16.70
2018-08-31T18:54:40.555Z,16.60
2018-08-31T18:57:09.259Z,16.60
2018-08-31T18:59:37.731Z,16.60
2018-08-31T19:02:06.346Z,16.50
2018-08-31T19:04:34.822Z,16.50
2018-08-31T19:07:03.377Z,16.50
2018-08-31T19:09:31.850Z,16.50
2018-08-31T19:12:00.355Z,16.50
2018-08-31T19:14:28.827Z,16.50
2018-08-31T19:16:57.308Z,16.50
2018-08-31T19:19:28.010Z,16.50
2018-08-31T19:21:57.429Z,16.50
2018-08-31T19:24:26.695Z,16.50
2018-08-31T19:26:56.957Z,16.40
2018-08-31T19:29:28.431Z,16.40
2018-08-31T19:31:56.960Z,16.40
2018-08-31T19:34:25.417Z,16.40
2018-08-31T19:36:54.705Z,16.50
2018-08-31T19:39:23.222Z,16.50
2018-08-31T19:41:51.751Z,16.40
2018-08-31T19:44:21.486Z,16.40
2018-08-31T19:46:49.997Z,16.50
2018-08-31T19:49:18.453Z,16.40
2018-08-31T19:51:46.919Z,16.40
2018-08-31T19:54:15.390Z,16.40
2018-08-31T19:56:43.852Z,16.40
2018-08-31T19:59:12.314Z,16.40
2018-08-31T20:01:40.791Z,16.40
2018-08-31T20:04:09.392Z,16.40
2018-08-31T20:06:37.947Z,16.30
2018-08-31T20:09:07.815Z,16.30
2018-08-31T20:11:36.507Z,16.30
2018-08-31T20:14:05.294Z,16.30
2018-08-31T20:16:33.762Z,16.40
2018-08-31T20:19:02.247Z,16.40
2018-08-31T20:21:30.714Z,16.30
2018-08-31T20:23:59.219Z,16.40
2018-08-31T20:26:28.078Z,16.40
2018-08-31T20:28:56.895Z,16.30
2018-08-31T20:31:25.351Z,16.30
2018-08-31T20:33:53.814Z,16.30
2018-08-31T20:36:22.287Z,16.30
2018-08-31T20:38:50.826Z,16.30
2018-08-31T20:41:19.266Z,16.30
2018-08-31T20:43:47.751Z,16.30
2018-08-31T20:46:16.220Z,16.30
2018-08-31T20:48:44.686Z,16.30
2018-08-31T20:51:13.162Z,16.30
2018-08-31T20:53:41.678Z,16.40
2018-08-31T20:56:10.147Z,16.40
2018-08-31T20:58:38.684Z,16.40
2018-08-31T21:01:07.138Z,16.40
2018-08-31T21:03:35.662Z,16.40
2018-08-31T21:06:04.194Z,16.40
2018-08-31T21:08:32.738Z,16.40
2018-08-31T21:11:01.207Z,16.30
2018-08-31T21:13:29.659Z,16.30
2018-08-31T21:15:58.124Z,16.30
2018-08-31T21:18:26.606Z,16.30
2018-08-31T21:20:55.083Z,16.30
2018-08-31T21:23:23.543Z,16.30
2018-08-31T21:25:52.009Z,16.30
2018-08-31T21:28:20.466Z,16.30
2018-08-31T21:30:48.944Z,16.40
2018-08-31T21:33:17.407Z,16.40
2018-08-31T21:35:45.979Z,16.40
2018-08-31T21:38:14.452Z,16.40
2018-08-31T21:40:42.915Z,16.40
2018-08-31T21:43:11.386Z,16.40
2018-08-31T21:45:39.862Z,16.40
2018-08-31T21:48:08.436Z,16.40
2018-08-31T21:50:36.942Z,16.40
2018-08-31T21:53:05.687Z,16.30
2018-08-31T21:55:34.202Z,16.30
2018-08-31T21:58:02.671Z,16.30
2018-08-31T22:00:35.395Z,16.30
2018-08-31T22:03:03.918Z,16.30
2018-08-31T22:05:32.514Z,16.30
2018-08-31T22:08:00.975Z,16.30
2018-08-31T22:10:29.444Z,16.30
2018-08-31T22:12:57.920Z,16.30
2018-08-31T22:15:27.198Z,16.30
2018-08-31T22:17:56.119Z,16.30
2018-08-31T22:20:24.987Z,16.30
2018-08-31T22:22:54.568Z,16.30
2018-08-31T22:25:24.182Z,16.20
2018-08-31T22:27:52.674Z,16.20
2018-08-31T22:30:21.166Z,16.20
2018-08-31T22:32:49.643Z,16.20
2018-08-31T22:35:18.094Z,16.10
2018-08-31T22:37:46.573Z,16.10
2018-08-31T22:40:15.035Z,16.10
2018-08-31T22:42:43.523Z,16.00
2018-08-31T22:45:12.939Z,16.00
2018-08-31T22:47:42.266Z,16.00
2018-08-31T22:50:11.055Z,16.00
2018-08-31T22:52:39.770Z,16.10
2018-08-31T22:55:08.310Z,16.10
2018-08-31T22:57:36.842Z,16.00
2018-08-31T23:00:05.534Z,16.00
2018-08-31T23:02:34.059Z,16.10
2018-08-31T23:05:02.640Z,16.10
2018-08-31T23:07:36.582Z,16.10
2018-08-31T23:10:05.485Z,16.20
2018-08-31T23:12:33.967Z,16.20
2018-08-31T23:15:02.462Z,16.20
2018-08-31T23:17:31.013Z,16.20
2018-08-31T23:20:00.186Z,16.20
2018-08-31T23:22:29.528Z,16.20
2018-08-31T23:24:59.876Z,16.20
2018-08-31T23:27:29.234Z,16.20
2018-08-31T23:29:57.698Z,16.20
2018-08-31T23:32:26.819Z,16.20
2018-08-31T23:34:55.794Z,16.10
2018-08-31T23:37:24.319Z,16.10
2018-08-31T23:39:52.793Z,16.10
2018-08-31T23:42:21.274Z,16.10
2018-08-31T23:44:49.753Z,16.00
2018-08-31T23:47:18.298Z,16.00
2018-08-31T23:49:46.766Z,16.00
2018-08-31T23:52:15.230Z,16.00
2018-08-31T23:54:43.702Z,16.00
2018-08-31T23:57:12.167Z,15.90
2018-08-31T23:59:40.629Z,15.90
